Pagina principale
METAR-TAF:

METAR-TAF

Aeroporti :

Mthatha, Sudafrica

latitudine: 31-32-47S, longitudine: 028-40-31E, altezza: 740 m

Osservazione

Il bollettino è stato emesso 57 minuti fa, alle 13:00 UTC
Vento 13 kt da est/sud-est
Temperature 25°C
Umidità 57%
Pressione 1016 hPa
Visibilità 10 km o più
Poco nuvoloso ad un'altezza di 3000 ft

METAR: FAUT 211300Z 11013KT 9999 FEW030 25/16 Q1016

Ora: 15:57 (13:57 UTC)

Previsione

Il bollettino è stato emesso 4 ore e 57 minuti fa, alle 09:00 UTC
Previsione valida dal 21 alle 10 UTC al 21 alle 18 UTC
Vento 6 kt da est/nord-est
Visibilità 10 km o più
Nuvoloso ad un'altezza di 2000 ft
Evoluzione graduale
dal 21 alle 11 UTC al 21 alle 13 UTC
Nuvoloso ad un'altezza di 1200 ft
Temporaneamente
dal 21 alle 17 UTC al 21 alle 18 UTC
Visibilità: 4500 m
Nuvoloso ad un'altezza di 1000 ft
pioggia debole

TAF: FAUT 210900Z 2110/2118 06006KT 9999 BKN020 TX22/2112Z TN18/2118Z BECMG 2111/2113 BKN012 TEMPO 2117/2118 4500 -RA BKN010

Osservazioni e previsioni meteorologiche di più di 4000 aeroporti (messaggi METAR e TAF).

Le stazioni disponibili sono rappresentate dai dischi gialli e rossi sulla carta.

Puntare il mouse per vedere il nome della stazione.

Clicca sopra per visualizzare le osservazioni e previsioni meteorologiche.

Per cambiare la mappa : fare clic sui pulsanti verdi con una croce nera per ingrandire, il pulsante verde con un trattino per diminuire, o sulla freccia verde per le mappe adiacenti.


METAR-TAF: